createdAt,value
2023-01-19T00:00:51.599Z,28.60
2023-01-19T00:03:18.638Z,22.00
2023-01-19T00:05:46.427Z,19.90
2023-01-19T00:08:16.414Z,18.40
2023-01-19T00:10:45.039Z,24.80
2023-01-19T00:13:12.194Z,21.70
2023-01-19T00:15:39.363Z,24.80
2023-01-19T00:18:06.154Z,24.10
2023-01-19T00:20:32.965Z,27.10
2023-01-19T00:23:00.119Z,26.50
2023-01-19T00:25:27.059Z,21.20
2023-01-19T00:27:53.877Z,22.00
2023-01-19T00:30:20.762Z,22.40
2023-01-19T00:32:47.480Z,20.30
2023-01-19T00:35:14.354Z,22.90
2023-01-19T00:37:41.044Z,23.70
2023-01-19T00:40:08.865Z,28.20
2023-01-19T00:42:41.720Z,27.60
2023-01-19T00:45:09.753Z,26.40
2023-01-19T00:47:36.546Z,26.80
2023-01-19T00:50:03.350Z,23.70
2023-01-19T00:52:30.055Z,25.40
2023-01-19T00:54:56.742Z,24.10
2023-01-19T00:57:23.646Z,24.40
2023-01-19T00:59:50.368Z,34.00
2023-01-19T01:02:17.280Z,26.20
2023-01-19T01:04:44.238Z,24.90
2023-01-19T01:07:11.029Z,28.80
2023-01-19T01:09:37.727Z,25.50
2023-01-19T01:12:04.533Z,23.40
2023-01-19T01:14:32.951Z,21.60
2023-01-19T01:17:00.825Z,30.50
2023-01-19T01:19:27.621Z,28.80
2023-01-19T01:21:55.617Z,21.60
2023-01-19T01:24:22.406Z,26.20
2023-01-19T01:26:49.109Z,26.20
2023-01-19T01:29:15.830Z,26.70
2023-01-19T01:31:42.682Z,27.00
2023-01-19T01:34:09.615Z,27.20
2023-01-19T01:36:36.399Z,22.90
2023-01-19T01:39:03.205Z,25.30
2023-01-19T01:41:30.043Z,30.40
2023-01-19T01:44:01.890Z,21.70
2023-01-19T01:46:30.481Z,24.60
2023-01-19T01:49:03.608Z,20.40
2023-01-19T01:51:37.305Z,28.20
2023-01-19T01:54:32.268Z,18.60
2023-01-19T01:57:03.998Z,17.70
2023-01-19T01:59:34.939Z,24.40
2023-01-19T02:02:25.625Z,22.90
2023-01-19T02:04:55.777Z,23.60
2023-01-19T02:07:49.024Z,19.00
2023-01-19T02:10:34.578Z,31.40
2023-01-19T02:13:20.311Z,22.90
2023-01-19T02:15:56.184Z,25.90
2023-01-19T02:18:23.988Z,25.00
2023-01-19T02:20:54.365Z,23.60
2023-01-19T02:23:31.719Z,26.10
2023-01-19T02:25:58.846Z,21.10
2023-01-19T02:28:26.257Z,24.20
2023-01-19T02:30:53.013Z,29.60
2023-01-19T02:33:19.854Z,26.20
2023-01-19T02:35:46.678Z,25.50
2023-01-19T02:38:13.760Z,25.90
2023-01-19T02:40:40.460Z,25.60
2023-01-19T02:43:07.142Z,25.30
2023-01-19T02:45:33.843Z,20.40
2023-01-19T02:48:00.551Z,25.20
2023-01-19T02:50:49.974Z,18.50
2023-01-19T02:53:36.674Z,20.60
2023-01-19T02:56:28.639Z,26.30
2023-01-19T02:59:15.987Z,24.30
2023-01-19T03:01:52.528Z,22.80
2023-01-19T03:04:32.708Z,22.90
2023-01-19T03:07:14.815Z,22.70
2023-01-19T03:09:43.448Z,25.80
2023-01-19T03:12:19.689Z,22.90
2023-01-19T03:14:46.685Z,19.70
2023-01-19T03:17:13.389Z,20.50
2023-01-19T03:19:41.299Z,25.80
2023-01-19T03:22:13.438Z,23.00
2023-01-19T03:24:42.094Z,23.60
2023-01-19T03:27:11.906Z,20.40
2023-01-19T03:29:38.763Z,23.30
2023-01-19T03:32:09.274Z,17.90
2023-01-19T03:34:36.176Z,22.60
2023-01-19T03:37:03.996Z,24.00
2023-01-19T03:39:30.916Z,20.20
2023-01-19T03:41:59.434Z,23.90
2023-01-19T03:44:26.446Z,22.40
2023-01-19T03:46:53.247Z,20.70
2023-01-19T03:49:19.957Z,20.10
2023-01-19T03:51:46.736Z,24.10
2023-01-19T03:54:13.430Z,18.50
2023-01-19T03:56:40.114Z,24.30
2023-01-19T03:59:07.563Z,22.30
2023-01-19T04:01:34.401Z,25.90
2023-01-19T04:04:01.232Z,27.20
2023-01-19T04:06:28.450Z,26.70
2023-01-19T04:08:55.137Z,25.30
2023-01-19T04:11:21.841Z,31.20
2023-01-19T04:13:48.557Z,23.90
2023-01-19T04:16:20.056Z,26.60
2023-01-19T04:18:46.964Z,25.50
2023-01-19T04:21:13.654Z,30.80
2023-01-19T04:23:40.346Z,22.40
2023-01-19T04:26:08.000Z,23.10
2023-01-19T04:28:35.296Z,20.00
2023-01-19T04:31:02.040Z,20.80
2023-01-19T04:33:29.105Z,22.60
2023-01-19T04:35:56.314Z,20.40
2023-01-19T04:38:24.167Z,21.20
2023-01-19T04:40:51.260Z,24.60
2023-01-19T04:43:18.656Z,30.00
2023-01-19T04:45:46.282Z,31.30
2023-01-19T04:48:13.694Z,20.30
2023-01-19T04:50:41.717Z,28.50
2023-01-19T04:53:08.649Z,32.50
2023-01-19T04:55:35.329Z,23.70
2023-01-19T04:58:02.058Z,32.50
2023-01-19T05:00:28.688Z,26.70
2023-01-19T05:02:55.380Z,26.60
2023-01-19T05:05:22.117Z,26.70
2023-01-19T05:07:48.781Z,24.20
2023-01-19T05:10:15.997Z,30.10
2023-01-19T05:12:42.734Z,23.80
2023-01-19T05:15:10.195Z,27.20
2023-01-19T05:17:36.979Z,23.50
2023-01-19T05:20:04.299Z,30.70
2023-01-19T05:22:31.097Z,28.50
2023-01-19T05:24:58.382Z,25.20
2023-01-19T05:27:25.024Z,26.10
2023-01-19T05:29:52.050Z,28.40
2023-01-19T05:32:18.785Z,23.70
2023-01-19T05:34:45.441Z,17.70
2023-01-19T05:37:12.200Z,15.80
2023-01-19T05:39:38.938Z,12.70
2023-01-19T05:42:05.760Z,13.50
2023-01-19T05:44:32.418Z,13.40
2023-01-19T05:46:59.220Z,11.70
2023-01-19T05:49:25.898Z,11.00
2023-01-19T05:51:52.547Z,12.80
2023-01-19T05:54:19.294Z,12.90
2023-01-19T05:56:46.052Z,18.30
2023-01-19T05:59:12.787Z,14.10
2023-01-19T06:01:40.290Z,18.30
2023-01-19T06:04:07.297Z,21.80
2023-01-19T06:06:33.970Z,23.50
2023-01-19T06:09:00.638Z,16.80
2023-01-19T06:11:27.332Z,20.70
2023-01-19T06:13:54.032Z,20.50
2023-01-19T06:16:20.762Z,20.90
2023-01-19T06:18:47.417Z,21.50
2023-01-19T06:21:14.428Z,27.30
2023-01-19T06:23:41.249Z,24.80
2023-01-19T06:26:07.977Z,33.10
2023-01-19T06:28:34.772Z,32.00
2023-01-19T06:31:01.558Z,24.80
2023-01-19T06:33:28.674Z,24.10
2023-01-19T06:35:55.551Z,24.90
2023-01-19T06:38:22.268Z,26.60
2023-01-19T06:40:58.279Z,29.50
2023-01-19T06:43:25.353Z,30.20
2023-01-19T06:45:52.227Z,31.10
2023-01-19T06:48:19.123Z,34.80
2023-01-19T06:50:45.987Z,29.30
2023-01-19T06:53:12.890Z,27.10
2023-01-19T06:55:39.602Z,31.30
2023-01-19T06:58:06.585Z,38.60
2023-01-19T07:00:33.275Z,46.00
2023-01-19T07:03:00.817Z,44.20
2023-01-19T07:05:27.906Z,39.40
2023-01-19T07:07:55.222Z,38.40
2023-01-19T07:10:22.128Z,42.30
2023-01-19T07:12:48.797Z,45.00
2023-01-19T07:15:16.290Z,48.70
2023-01-19T07:17:43.531Z,44.20
2023-01-19T07:20:13.066Z,35.70
2023-01-19T07:22:41.298Z,42.50
2023-01-19T07:25:08.309Z,39.40
2023-01-19T07:27:34.955Z,27.50
2023-01-19T07:30:01.663Z,24.50
2023-01-19T07:32:28.787Z,24.90
2023-01-19T07:34:55.466Z,32.10
2023-01-19T07:37:22.221Z,36.40
2023-01-19T07:39:48.882Z,20.50
2023-01-19T07:42:15.598Z,16.30
2023-01-19T07:44:42.307Z,17.30
2023-01-19T07:47:12.526Z,25.80
2023-01-19T07:49:39.672Z,25.80
2023-01-19T07:52:06.403Z,23.90
2023-01-19T07:54:33.261Z,20.60
2023-01-19T07:57:00.857Z,17.00
2023-01-19T07:59:31.161Z,21.30
2023-01-19T08:01:59.560Z,16.20
2023-01-19T08:04:29.433Z,16.10
2023-01-19T08:06:56.172Z,15.00
2023-01-19T08:09:23.892Z,20.50
2023-01-19T08:11:50.588Z,15.10
2023-01-19T08:14:17.436Z,12.80
2023-01-19T08:16:44.194Z,24.60
2023-01-19T08:19:10.908Z,15.30
2023-01-19T08:21:38.946Z,15.50
2023-01-19T08:24:06.061Z,18.80
2023-01-19T08:26:34.493Z,21.30
2023-01-19T08:29:03.053Z,16.20
2023-01-19T08:31:29.890Z,19.10
2023-01-19T08:33:56.734Z,18.00
2023-01-19T08:36:25.030Z,18.90
2023-01-19T08:38:51.910Z,17.30
2023-01-19T08:41:18.651Z,16.00
2023-01-19T08:43:45.532Z,14.00
2023-01-19T08:46:12.509Z,15.60
2023-01-19T08:48:40.080Z,12.60
2023-01-19T08:51:06.837Z,16.10
2023-01-19T08:53:34.196Z,16.60
2023-01-19T08:56:01.345Z,17.30
2023-01-19T08:58:28.388Z,19.20
2023-01-19T09:00:55.185Z,20.10
2023-01-19T09:03:22.821Z,20.60
2023-01-19T09:05:49.755Z,19.80
2023-01-19T09:08:16.579Z,24.90
2023-01-19T09:10:48.011Z,19.90
2023-01-19T09:13:14.936Z,22.20
2023-01-19T09:15:43.173Z,20.90
2023-01-19T09:18:13.550Z,20.30
2023-01-19T09:20:44.339Z,22.60
2023-01-19T09:23:12.261Z,24.50
2023-01-19T09:25:39.504Z,25.00
2023-01-19T09:28:07.709Z,22.90
2023-01-19T09:30:36.718Z,20.90
2023-01-19T09:33:06.341Z,25.40
2023-01-19T09:35:33.858Z,22.50
2023-01-19T09:38:01.041Z,21.00
2023-01-19T09:40:28.560Z,22.10
2023-01-19T09:43:01.269Z,21.50
2023-01-19T09:45:42.724Z,21.10
2023-01-19T09:48:35.748Z,20.30
2023-01-19T09:51:03.771Z,18.30
2023-01-19T09:53:40.294Z,18.50
2023-01-19T09:56:15.354Z,19.00
2023-01-19T09:58:42.159Z,19.80
2023-01-19T10:01:36.463Z,21.70
2023-01-19T10:06:49.520Z,19.20
2023-01-19T10:09:25.198Z,20.00
2023-01-19T10:11:55.387Z,22.10
2023-01-19T10:14:44.610Z,18.20
2023-01-19T10:17:20.385Z,24.20
2023-01-19T10:19:49.489Z,21.30
2023-01-19T10:22:26.889Z,19.10
2023-01-19T10:24:55.848Z,22.00
2023-01-19T10:27:24.987Z,21.50
2023-01-19T10:29:51.832Z,22.80
2023-01-19T10:32:34.257Z,18.90
2023-01-19T10:35:01.058Z,20.40
2023-01-19T10:37:32.495Z,18.70
2023-01-19T10:40:02.667Z,25.50
2023-01-19T10:42:30.921Z,24.30
2023-01-19T10:44:57.902Z,20.80
2023-01-19T10:47:30.573Z,21.00
2023-01-19T10:49:57.363Z,19.00
2023-01-19T10:52:35.532Z,21.10
2023-01-19T10:55:03.037Z,20.90
2023-01-19T10:57:32.614Z,19.10
2023-01-19T10:59:59.422Z,25.70
2023-01-19T11:02:28.036Z,21.60
2023-01-19T11:04:59.280Z,22.20
2023-01-19T11:07:27.023Z,19.00
2023-01-19T11:10:12.626Z,17.60
2023-01-19T11:13:01.687Z,22.60
2023-01-19T11:15:41.025Z,19.80
2023-01-19T11:18:07.896Z,21.60
2023-01-19T11:20:49.747Z,20.50
2023-01-19T11:23:28.636Z,29.30
2023-01-19T11:26:01.296Z,24.50
2023-01-19T11:28:36.713Z,23.70
2023-01-19T11:31:18.538Z,21.20
2023-01-19T11:33:50.831Z,20.80
2023-01-19T11:36:22.917Z,24.70
2023-01-19T11:38:53.488Z,24.50
2023-01-19T11:41:29.652Z,23.70
2023-01-19T11:44:12.085Z,24.80
2023-01-19T11:46:43.486Z,27.50
2023-01-19T11:49:25.887Z,22.90
2023-01-19T11:52:00.169Z,26.10
2023-01-19T11:55:03.642Z,25.00
2023-01-19T11:57:33.990Z,19.20
2023-01-19T12:00:05.653Z,23.30
2023-01-19T12:02:45.168Z,17.50
2023-01-19T12:05:16.966Z,30.90
2023-01-19T12:07:46.103Z,27.30
2023-01-19T12:10:33.206Z,34.30
2023-01-19T12:13:02.470Z,23.00
2023-01-19T12:15:43.056Z,29.00
2023-01-19T12:18:41.238Z,25.50
2023-01-19T12:21:10.668Z,31.90
2023-01-19T12:23:53.649Z,31.20
2023-01-19T12:26:57.608Z,31.30
2023-01-19T12:32:18.196Z,30.50
2023-01-19T12:34:51.914Z,29.40
2023-01-19T12:37:35.692Z,28.30
2023-01-19T12:50:24.158Z,41.30
2023-01-19T12:52:58.708Z,35.30
2023-01-19T12:55:27.807Z,40.70
2023-01-19T12:58:08.080Z,33.50
2023-01-19T13:00:39.471Z,33.20
2023-01-19T13:03:32.363Z,37.90
2023-01-19T13:05:59.280Z,40.20
2023-01-19T13:08:29.850Z,39.10
2023-01-19T13:10:59.848Z,32.00
2023-01-19T13:13:29.565Z,37.60
2023-01-19T13:15:57.331Z,37.40
2023-01-19T13:18:25.361Z,35.20
2023-01-19T13:21:02.560Z,40.40
2023-01-19T13:23:50.016Z,35.30
2023-01-19T13:26:21.100Z,48.90
2023-01-19T13:28:53.445Z,43.00
2023-01-19T13:31:20.301Z,34.80
2023-01-19T13:33:52.789Z,43.80
2023-01-19T13:36:26.984Z,27.90
2023-01-19T13:38:54.091Z,49.30
2023-01-19T13:41:25.734Z,40.70
2023-01-19T13:43:58.816Z,35.80
2023-01-19T13:46:26.454Z,32.70
2023-01-19T13:49:01.611Z,31.80
2023-01-19T13:51:28.397Z,39.50
2023-01-19T13:53:58.989Z,49.30
2023-01-19T13:56:28.541Z,30.00
2023-01-19T13:59:10.047Z,33.00
2023-01-19T14:01:38.489Z,32.80
2023-01-19T14:04:05.511Z,43.20
2023-01-19T14:06:40.542Z,39.00
2023-01-19T14:09:16.612Z,43.60
2023-01-19T14:12:03.681Z,40.90
2023-01-19T14:14:30.419Z,41.80
2023-01-19T14:16:57.098Z,41.50
2023-01-19T14:19:23.839Z,37.40
2023-01-19T14:22:04.056Z,41.80
2023-01-19T14:24:33.389Z,40.60
2023-01-19T14:27:19.436Z,44.10
2023-01-19T14:29:47.611Z,35.20
2023-01-19T14:32:24.202Z,35.30
2023-01-19T14:34:53.780Z,38.60
2023-01-19T14:37:25.848Z,46.20
2023-01-19T14:40:01.952Z,44.50
2023-01-19T14:42:29.929Z,38.80
2023-01-19T14:44:57.416Z,33.10
2023-01-19T14:47:29.662Z,49.10
2023-01-19T14:50:00.344Z,39.10
2023-01-19T14:52:30.759Z,45.80
2023-01-19T14:54:57.474Z,46.20
2023-01-19T14:57:24.169Z,37.90
2023-01-19T14:59:50.938Z,43.10
2023-01-19T15:02:21.531Z,43.90
2023-01-19T15:04:48.281Z,47.70
2023-01-19T15:07:22.526Z,42.20
2023-01-19T15:09:49.239Z,45.50
2023-01-19T15:12:17.473Z,53.80
2023-01-19T15:14:45.076Z,45.70
2023-01-19T15:17:25.487Z,44.20
2023-01-19T15:19:55.512Z,38.30
2023-01-19T15:22:22.827Z,40.00
2023-01-19T15:24:49.853Z,40.20
2023-01-19T15:27:16.950Z,46.40
2023-01-19T15:29:43.748Z,42.70
2023-01-19T15:32:14.262Z,42.60
2023-01-19T15:34:41.500Z,41.60
2023-01-19T15:37:08.358Z,43.80
2023-01-19T15:39:35.512Z,41.70
2023-01-19T15:42:02.353Z,43.60
2023-01-19T15:44:29.695Z,34.70
2023-01-19T15:46:57.502Z,45.80
2023-01-19T15:49:24.317Z,36.30
2023-01-19T15:51:51.081Z,51.10
2023-01-19T15:54:18.219Z,47.50
2023-01-19T15:56:45.092Z,44.50
2023-01-19T15:59:11.790Z,46.70
2023-01-19T16:01:38.554Z,41.60
2023-01-19T16:04:06.419Z,46.70
2023-01-19T16:06:33.544Z,46.40
2023-01-19T16:09:01.545Z,39.10
2023-01-19T16:11:29.884Z,37.70
2023-01-19T16:13:56.688Z,39.30
2023-01-19T16:16:24.526Z,34.00
2023-01-19T16:18:51.390Z,40.20
2023-01-19T16:21:18.099Z,41.20
2023-01-19T16:23:44.791Z,46.20
2023-01-19T16:26:24.869Z,52.60
2023-01-19T16:28:51.560Z,38.60
2023-01-19T16:31:18.390Z,38.10
2023-01-19T16:33:45.344Z,42.50
2023-01-19T16:36:20.171Z,42.30
2023-01-19T16:38:46.875Z,31.10
2023-01-19T16:41:13.627Z,40.30
2023-01-19T16:43:40.431Z,33.10
2023-01-19T16:46:07.165Z,32.10
2023-01-19T16:48:34.028Z,35.90
2023-01-19T16:51:05.248Z,35.60
2023-01-19T16:53:34.950Z,27.50
2023-01-19T16:56:08.497Z,28.30
2023-01-19T16:58:37.510Z,37.50
2023-01-19T17:01:12.497Z,30.90
2023-01-19T17:03:39.670Z,41.10
2023-01-19T17:06:07.294Z,38.10
2023-01-19T17:08:34.812Z,38.00
2023-01-19T17:11:04.931Z,37.60
2023-01-19T17:13:31.983Z,35.00
2023-01-19T17:16:00.767Z,34.20
2023-01-19T17:18:31.117Z,36.60
2023-01-19T17:21:02.887Z,38.50
2023-01-19T17:23:30.106Z,38.40
2023-01-19T17:25:57.991Z,36.50
2023-01-19T17:28:25.431Z,34.90
2023-01-19T17:30:52.649Z,42.50
2023-01-19T17:33:20.755Z,30.80
2023-01-19T17:35:47.471Z,46.20
2023-01-19T17:38:14.265Z,36.80
2023-01-19T17:40:41.283Z,32.90
2023-01-19T17:43:08.070Z,40.80
2023-01-19T17:45:36.306Z,32.80
2023-01-19T17:48:04.385Z,37.60
2023-01-19T17:50:32.758Z,28.80
2023-01-19T17:52:59.495Z,38.20
2023-01-19T17:55:26.444Z,38.70
2023-01-19T17:57:53.390Z,37.10
2023-01-19T18:00:20.690Z,35.10
2023-01-19T18:02:51.911Z,33.10
2023-01-19T18:05:19.299Z,33.50
2023-01-19T18:07:47.215Z,32.10
2023-01-19T18:10:14.507Z,29.40
2023-01-19T18:12:41.618Z,31.00
2023-01-19T18:15:09.079Z,36.80
2023-01-19T18:17:36.156Z,29.00
2023-01-19T18:20:03.480Z,33.80
2023-01-19T18:22:30.528Z,30.40
2023-01-19T18:24:57.471Z,35.20
2023-01-19T18:27:24.430Z,34.20
2023-01-19T18:29:51.378Z,34.10
2023-01-19T18:32:18.292Z,47.30
2023-01-19T18:34:45.254Z,33.00
2023-01-19T18:37:11.991Z,34.30
2023-01-19T18:39:38.770Z,33.20
2023-01-19T18:42:05.685Z,31.60
2023-01-19T18:44:32.485Z,37.00
2023-01-19T18:46:59.223Z,29.10
2023-01-19T18:49:26.008Z,31.10
2023-01-19T18:51:52.770Z,36.50
2023-01-19T18:54:20.220Z,33.50
2023-01-19T18:56:49.306Z,35.70
2023-01-19T18:59:16.044Z,31.60
2023-01-19T19:01:43.064Z,36.80
2023-01-19T19:04:10.257Z,38.00
2023-01-19T19:06:37.291Z,31.70
2023-01-19T19:09:04.392Z,30.50
2023-01-19T19:11:31.167Z,37.80
2023-01-19T19:14:00.589Z,29.40
2023-01-19T19:16:27.453Z,39.90
2023-01-19T19:18:54.215Z,40.60
2023-01-19T19:21:21.770Z,35.70
2023-01-19T19:23:53.101Z,30.30
2023-01-19T19:26:19.881Z,31.90
2023-01-19T19:28:47.790Z,28.30
2023-01-19T19:31:16.952Z,34.60
2023-01-19T19:33:44.141Z,36.70
2023-01-19T19:36:11.897Z,33.40
2023-01-19T19:38:41.373Z,27.50
2023-01-19T19:41:09.383Z,23.90
2023-01-19T19:43:36.737Z,30.40
2023-01-19T19:46:05.787Z,28.30
2023-01-19T19:48:32.750Z,29.00
2023-01-19T19:51:28.914Z,35.00
2023-01-19T19:53:57.093Z,30.40
2023-01-19T19:56:24.357Z,35.50
2023-01-19T19:58:51.378Z,33.50
2023-01-19T20:01:25.925Z,41.70
2023-01-19T20:03:53.792Z,34.20
2023-01-19T20:06:22.859Z,34.00
2023-01-19T20:08:50.195Z,30.30
2023-01-19T20:11:19.017Z,27.20
2023-01-19T20:13:47.910Z,27.10
2023-01-19T20:16:19.316Z,29.70
2023-01-19T20:18:48.861Z,36.00
2023-01-19T20:21:20.583Z,34.60
2023-01-19T20:23:47.710Z,25.90
2023-01-19T20:26:15.713Z,24.10
2023-01-19T20:28:42.808Z,25.40
2023-01-19T20:31:10.654Z,25.70
2023-01-19T20:33:37.555Z,32.60
2023-01-19T20:36:04.956Z,32.80
2023-01-19T20:38:32.163Z,25.50
2023-01-19T20:40:59.041Z,35.60
2023-01-19T20:43:26.007Z,35.70
2023-01-19T20:45:52.925Z,32.10
2023-01-19T20:48:19.675Z,34.00
2023-01-19T20:50:46.383Z,38.60
2023-01-19T20:53:13.073Z,33.40
2023-01-19T20:55:40.024Z,34.90
2023-01-19T20:58:06.853Z,44.30
2023-01-19T21:00:35.015Z,49.30
2023-01-19T21:03:02.099Z,41.20
2023-01-19T21:05:29.040Z,34.40
2023-01-19T21:07:55.778Z,48.60
2023-01-19T21:10:22.690Z,37.10
2023-01-19T21:12:49.482Z,30.40
2023-01-19T21:15:16.419Z,35.80
2023-01-19T21:17:45.110Z,29.40
2023-01-19T21:20:12.446Z,36.60
2023-01-19T21:22:39.452Z,22.20
2023-01-19T21:25:07.679Z,29.80
2023-01-19T21:27:34.375Z,26.30
2023-01-19T21:30:02.687Z,33.30
2023-01-19T21:32:29.513Z,40.10
2023-01-19T21:34:56.477Z,24.90
2023-01-19T21:37:23.209Z,27.20
2023-01-19T21:39:50.170Z,36.10
2023-01-19T21:42:17.111Z,41.10
2023-01-19T21:44:44.056Z,34.80
2023-01-19T21:47:12.053Z,36.10
2023-01-19T21:49:38.754Z,42.20
2023-01-19T21:52:05.626Z,34.20
2023-01-19T21:54:32.555Z,35.30
2023-01-19T21:57:01.276Z,38.60
2023-01-19T21:59:28.393Z,30.20
2023-01-19T22:01:55.143Z,34.00
2023-01-19T22:04:22.000Z,33.00
2023-01-19T22:06:48.722Z,27.50
2023-01-19T22:09:15.419Z,36.20
2023-01-19T22:11:42.180Z,38.30
2023-01-19T22:14:08.902Z,28.90
2023-01-19T22:16:35.756Z,31.50
2023-01-19T22:19:02.863Z,35.90
2023-01-19T22:21:35.128Z,40.70
2023-01-19T22:24:02.567Z,36.90
2023-01-19T22:26:30.051Z,31.10
2023-01-19T22:28:59.187Z,40.70
2023-01-19T22:31:26.636Z,32.90
2023-01-19T22:33:53.727Z,37.50
2023-01-19T22:36:22.503Z,32.30
2023-01-19T22:38:55.404Z,36.70
2023-01-19T22:41:27.058Z,42.00
2023-01-19T22:43:55.329Z,30.90
2023-01-19T22:46:23.869Z,26.40
2023-01-19T22:48:50.855Z,33.60
2023-01-19T22:51:17.770Z,32.80
2023-01-19T22:53:44.962Z,33.00
2023-01-19T22:56:16.188Z,39.50
2023-01-19T22:58:45.747Z,39.80
2023-01-19T23:01:13.986Z,39.10
2023-01-19T23:03:40.897Z,36.40
2023-01-19T23:06:12.509Z,35.80
2023-01-19T23:08:39.716Z,40.80
2023-01-19T23:11:17.772Z,43.20
2023-01-19T23:13:44.623Z,49.30
2023-01-19T23:16:12.459Z,28.60
2023-01-19T23:18:39.668Z,39.40
2023-01-19T23:21:08.405Z,47.20
2023-01-19T23:23:35.416Z,36.30
2023-01-19T23:26:03.742Z,41.60
2023-01-19T23:28:31.166Z,37.70
2023-01-19T23:30:57.948Z,42.30
2023-01-19T23:33:24.798Z,41.00
2023-01-19T23:35:51.632Z,36.60
2023-01-19T23:38:18.391Z,33.40
2023-01-19T23:40:45.128Z,32.40
2023-01-19T23:43:12.043Z,39.80
2023-01-19T23:45:38.765Z,38.40
2023-01-19T23:48:05.680Z,29.00
2023-01-19T23:50:32.469Z,35.60
2023-01-19T23:52:59.237Z,32.80
2023-01-19T23:55:27.386Z,33.10
2023-01-19T23:57:54.090Z,32.20
